createdAt,value
2023-06-10T00:00:43.572Z,1000.6
2023-06-10T00:01:44.556Z,1000.2
2023-06-10T00:02:45.642Z,1000.6
2023-06-10T00:03:46.702Z,1000.7
2023-06-10T00:04:47.601Z,1000.7
2023-06-10T00:05:48.497Z,1000.7
2023-06-10T00:06:49.730Z,1000.7
2023-06-10T00:07:50.506Z,1000.7
2023-06-10T00:08:51.492Z,1000.7
2023-06-10T00:09:52.568Z,1000.7
2023-06-10T00:10:53.508Z,1000.7
2023-06-10T00:11:54.483Z,1000.7
2023-06-10T00:12:55.477Z,1000.7
2023-06-10T00:13:56.563Z,1000.5
2023-06-10T00:14:57.532Z,1000.7
2023-06-10T00:15:58.543Z,1000.7
2023-06-10T00:16:59.509Z,1000.7
2023-06-10T00:18:00.610Z,1000.7
2023-06-10T00:19:01.506Z,1000.2
2023-06-10T00:20:02.583Z,1000.6
2023-06-10T00:21:03.569Z,1000.7
2023-06-10T00:22:04.496Z,1000.8
2023-06-10T00:23:05.508Z,1000.8
2023-06-10T00:24:06.559Z,1000.8
2023-06-10T00:25:07.895Z,1000.7
2023-06-10T00:26:08.500Z,1000.7
2023-06-10T00:27:09.572Z,1000.7
2023-06-10T00:28:10.476Z,1000.7
2023-06-10T00:29:11.507Z,1000.7
2023-06-10T00:30:12.513Z,1000.7
2023-06-10T00:31:13.520Z,1000.7
2023-06-10T00:32:14.556Z,1000.7
2023-06-10T00:33:15.565Z,1000.7
2023-06-10T00:34:16.496Z,1000.7
2023-06-10T00:35:17.507Z,1000.7
2023-06-10T00:36:18.505Z,1000.7
2023-06-10T00:37:19.523Z,1000.6
2023-06-10T00:38:20.503Z,1000.6
2023-06-10T00:39:21.501Z,1000.6
2023-06-10T00:40:22.493Z,1000.7
2023-06-10T00:41:23.680Z,1000.6
2023-06-10T00:42:24.552Z,1000.6
2023-06-10T00:43:25.489Z,1000.7
2023-06-10T00:44:26.587Z,1000.7
2023-06-10T00:45:27.522Z,1000.7
2023-06-10T00:46:28.523Z,1000.7
2023-06-10T00:47:29.563Z,1000.7
2023-06-10T00:48:30.511Z,1000.7
2023-06-10T00:49:31.615Z,1000.7
2023-06-10T00:50:32.521Z,1000.5
2023-06-10T00:51:33.510Z,1000.7
2023-06-10T00:52:34.661Z,1000.7
2023-06-10T00:53:35.506Z,1000.7
2023-06-10T00:54:36.510Z,1000.7
2023-06-10T00:55:37.511Z,1000.7
2023-06-10T00:56:38.648Z,1000.7
2023-06-10T00:57:39.579Z,1000.7
2023-06-10T00:58:40.521Z,1000.6
2023-06-10T00:59:41.532Z,1000.6
2023-06-10T01:00:42.578Z,1000.6
2023-06-10T01:01:43.610Z,1000.6
2023-06-10T01:02:44.721Z,1000.6
2023-06-10T01:03:45.517Z,1000.7
2023-06-10T01:04:46.512Z,1000.7
2023-06-10T01:05:47.505Z,1000.7
2023-06-10T01:06:48.629Z,1000.7
2023-06-10T01:07:49.556Z,1000.8
2023-06-10T01:08:50.522Z,1000.7
2023-06-10T01:09:51.601Z,1000.8
2023-06-10T01:10:52.515Z,1000.7
2023-06-10T01:11:53.565Z,1000.7
2023-06-10T01:12:54.603Z,1000.5
2023-06-10T01:13:55.533Z,1000.6
2023-06-10T01:14:56.520Z,1000.6
2023-06-10T01:15:57.546Z,1000.6
2023-06-10T01:16:58.557Z,1000.7
2023-06-10T01:17:59.675Z,1000.7
2023-06-10T01:19:00.540Z,1000.7
2023-06-10T01:20:01.564Z,1000.7
2023-06-10T01:21:02.528Z,1000.7
2023-06-10T01:22:03.617Z,1000.7
2023-06-10T01:23:04.538Z,1000.7
2023-06-10T01:24:05.573Z,1000.7
2023-06-10T01:25:06.798Z,1000.7
2023-06-10T01:26:07.575Z,1000.5
2023-06-10T01:27:08.904Z,1000.7
2023-06-10T01:28:09.528Z,1000.7
2023-06-10T01:29:10.545Z,1000.7
2023-06-10T01:30:11.538Z,1000.7
2023-06-10T01:31:12.585Z,1000.7
2023-06-10T01:32:13.570Z,1000.7
2023-06-10T01:33:14.629Z,1000.6
2023-06-10T01:34:15.579Z,1000.6
2023-06-10T01:35:16.540Z,1000.6
2023-06-10T01:36:17.526Z,1000.6
2023-06-10T01:37:18.574Z,1000.7
2023-06-10T01:38:19.528Z,1000.7
2023-06-10T01:39:20.569Z,1000.7
2023-06-10T01:40:21.535Z,1000.7
2023-06-10T01:41:22.555Z,1000.7
2023-06-10T01:42:23.621Z,1000.7
2023-06-10T01:43:24.558Z,1000.5
2023-06-10T01:44:25.564Z,1000.7
2023-06-10T01:45:26.536Z,1000.2
2023-06-10T01:46:27.570Z,1000.6
2023-06-10T01:47:28.643Z,1000.7
2023-06-10T01:48:29.560Z,1000.8
2023-06-10T01:49:30.631Z,1000.8
2023-06-10T01:50:31.548Z,1000.8
2023-06-10T01:51:32.556Z,1000.8
2023-06-10T01:52:33.622Z,1000.7
2023-06-10T01:53:34.541Z,1000.8
2023-06-10T01:54:35.566Z,1000.8
2023-06-10T01:55:36.554Z,1000.8
2023-06-10T01:56:37.530Z,1000.8
2023-06-10T01:57:38.915Z,1000.8
2023-06-10T01:58:39.555Z,1000.8
2023-06-10T01:59:40.545Z,1000.9
2023-06-10T02:00:41.604Z,1000.9
2023-06-10T02:01:42.548Z,1000.8
2023-06-10T02:02:43.789Z,1000.3
2023-06-10T02:03:44.688Z,1000.7
2023-06-10T02:04:45.531Z,1000.9
2023-06-10T02:05:46.549Z,1000.8
2023-06-10T02:06:47.628Z,1000.9
2023-06-10T02:07:48.585Z,1000.9
2023-06-10T02:08:59.443Z,1000.9
2023-06-10T02:10:00.596Z,1000.9
2023-06-10T02:11:01.604Z,1000.9
2023-06-10T02:12:02.564Z,1000.9
2023-06-10T02:13:03.649Z,1000.9
2023-06-10T02:14:04.561Z,1000.9
2023-06-10T02:15:05.563Z,1000.8
2023-06-10T02:16:06.669Z,1000.8
2023-06-10T02:17:07.621Z,1000.8
2023-06-10T02:18:08.644Z,1000.8
2023-06-10T02:19:09.586Z,1000.8
2023-06-10T02:20:10.546Z,1000.7
2023-06-10T02:21:11.588Z,1000.7
2023-06-10T02:22:12.551Z,1000.7
2023-06-10T02:23:13.568Z,1000.6
2023-06-10T02:24:14.579Z,1000.7
2023-06-10T02:25:15.584Z,1000.6
2023-06-10T02:26:16.598Z,1000.6
2023-06-10T02:27:17.578Z,1000.6
2023-06-10T02:28:18.588Z,1000.6
2023-06-10T02:29:19.581Z,1000
2023-06-10T02:30:20.661Z,1000.4
2023-06-10T02:31:22.239Z,1000.6
2023-06-10T02:32:23.636Z,1000.3
2023-06-10T02:33:24.562Z,1000.5
2023-06-10T02:34:25.584Z,1000.5
2023-06-10T02:35:26.573Z,1000.5
2023-06-10T02:36:27.562Z,1000.6
2023-06-10T02:37:28.598Z,1000.6
2023-06-10T02:38:29.559Z,1000.6
2023-06-10T02:39:30.586Z,1000.6
2023-06-10T02:40:31.629Z,1000.6
2023-06-10T02:41:32.587Z,1000.6
2023-06-10T02:42:33.693Z,1000.6
2023-06-10T02:43:34.555Z,1000.6
2023-06-10T02:44:35.565Z,1000.6
2023-06-10T02:45:36.591Z,1000.7
2023-06-10T02:46:37.662Z,1000.6
2023-06-10T02:47:38.588Z,1000.6
2023-06-10T02:48:39.670Z,1000.6
2023-06-10T02:49:40.676Z,1000.6
2023-06-10T02:50:41.626Z,1000.6
2023-06-10T02:51:42.587Z,1000.6
2023-06-10T02:52:43.634Z,1000.7
2023-06-10T02:53:44.577Z,1000.7
2023-06-10T02:54:45.666Z,1000.6
2023-06-10T02:55:46.571Z,1000.7
2023-06-10T02:56:47.599Z,1000.7
2023-06-10T02:57:48.590Z,1000.7
2023-06-10T02:58:49.600Z,1000.7
2023-06-10T02:59:50.615Z,1000.7
2023-06-10T03:00:51.631Z,1000.7
2023-06-10T03:01:52.658Z,1000.7
2023-06-10T03:02:53.668Z,1000.7
2023-06-10T03:03:54.621Z,1000.7
2023-06-10T03:04:55.653Z,1000.7
2023-06-10T03:05:56.585Z,1000.5
2023-06-10T03:06:57.695Z,1000.6
2023-06-10T03:07:58.597Z,1000.8
2023-06-10T03:08:59.630Z,1000.8
2023-06-10T03:10:00.589Z,1000.8
2023-06-10T03:11:01.617Z,1000.8
2023-06-10T03:12:02.603Z,1000.8
2023-06-10T03:13:03.654Z,1000.7
2023-06-10T03:14:04.615Z,1000.8
2023-06-10T03:15:05.589Z,1000.7
2023-06-10T03:16:06.604Z,1000.7
2023-06-10T03:17:07.591Z,1000.9
2023-06-10T03:18:08.618Z,1000.8
2023-06-10T03:19:09.620Z,1000.7
2023-06-10T03:20:10.625Z,1000.8
2023-06-10T03:21:11.590Z,1000.8
2023-06-10T03:22:12.608Z,1000.8
2023-06-10T03:23:13.651Z,1000.8
2023-06-10T03:24:14.735Z,1000.8
2023-06-10T03:25:15.742Z,1000.9
2023-06-10T03:26:16.582Z,1000.9
2023-06-10T03:27:17.703Z,1000.9
2023-06-10T03:28:18.661Z,1000.9
2023-06-10T03:29:19.616Z,1000.9
2023-06-10T03:30:20.620Z,1000.8
2023-06-10T03:31:21.616Z,1000.9
2023-06-10T03:32:22.607Z,1000.9
2023-06-10T03:33:23.711Z,1000.9
2023-06-10T03:34:24.637Z,1001
2023-06-10T03:35:25.649Z,1000.9
2023-06-10T03:36:26.624Z,1000.9
2023-06-10T03:37:27.624Z,1000.9
2023-06-10T03:38:28.642Z,1000.9
2023-06-10T03:39:29.628Z,1000.9
2023-06-10T03:40:30.626Z,1001
2023-06-10T03:41:31.620Z,1000.8
2023-06-10T03:42:32.610Z,1001
2023-06-10T03:43:33.613Z,1001
2023-06-10T03:44:34.654Z,1001
2023-06-10T03:45:35.727Z,1001
2023-06-10T03:46:36.605Z,1001
2023-06-10T03:47:37.616Z,1001
2023-06-10T03:48:38.661Z,1001
2023-06-10T03:49:39.713Z,1001
2023-06-10T03:50:40.646Z,1001.1
2023-06-10T03:51:41.610Z,1001.1
2023-06-10T03:52:42.620Z,1001.1
2023-06-10T03:53:43.647Z,1001.1
2023-06-10T03:54:44.711Z,1001.1
2023-06-10T03:55:45.648Z,1001.1
2023-06-10T03:56:46.611Z,1001.1
2023-06-10T03:57:47.658Z,1001.2
2023-06-10T03:58:48.614Z,1001.2
2023-06-10T03:59:49.675Z,1001.2
2023-06-10T04:00:50.742Z,1001.2
2023-06-10T04:01:51.663Z,1001.2
2023-06-10T04:02:52.885Z,1001.2
2023-06-10T04:03:53.613Z,1000.9
2023-06-10T04:04:54.633Z,1001.1
2023-06-10T04:05:55.703Z,1001.2
2023-06-10T04:06:56.650Z,1001.2
2023-06-10T04:07:57.622Z,1001.2
2023-06-10T04:08:58.661Z,1001.2
2023-06-10T04:09:59.656Z,1001.2
2023-06-10T04:11:00.642Z,1001.2
2023-06-10T04:12:01.678Z,1001.2
2023-06-10T04:13:02.627Z,1001.1
2023-06-10T04:14:03.641Z,1001.1
2023-06-10T04:15:04.744Z,1001.1
2023-06-10T04:16:05.644Z,1001.1
2023-06-10T04:17:06.686Z,1001.1
2023-06-10T04:18:07.823Z,1001.1
2023-06-10T04:19:08.640Z,1001.1
2023-06-10T04:20:09.663Z,1001.1
2023-06-10T04:21:10.657Z,1001.1
2023-06-10T04:22:11.670Z,1001.1
2023-06-10T04:23:12.645Z,1001.2
2023-06-10T04:24:13.647Z,1001.1
2023-06-10T04:25:14.676Z,1001.1
2023-06-10T04:26:15.627Z,1001.2
2023-06-10T04:27:16.635Z,1001.1
2023-06-10T04:28:17.686Z,1001.1
2023-06-10T04:29:18.664Z,1001.1
2023-06-10T04:30:19.637Z,1001.2
2023-06-10T04:31:20.749Z,1001.2
2023-06-10T04:32:21.685Z,1001.2
2023-06-10T04:33:22.634Z,1001.2
2023-06-10T04:34:23.731Z,1001.2
2023-06-10T04:35:24.634Z,1001.2
2023-06-10T04:36:25.709Z,1001.2
2023-06-10T04:37:26.641Z,1001.2
2023-06-10T04:38:27.651Z,1001.2
2023-06-10T04:39:28.662Z,1001.2
2023-06-10T04:40:29.639Z,1001.2
2023-06-10T04:41:30.666Z,1001.3
2023-06-10T04:42:31.651Z,1001.3
2023-06-10T04:43:32.653Z,1001.3
2023-06-10T04:44:33.649Z,1001.3
2023-06-10T04:45:34.635Z,1001.3
2023-06-10T04:46:35.683Z,1001.3
2023-06-10T04:47:36.684Z,1001.3
2023-06-10T04:48:37.640Z,1001.4
2023-06-10T04:49:38.640Z,1001.4
2023-06-10T04:50:39.656Z,1001.1
2023-06-10T04:51:40.729Z,1001.3
2023-06-10T04:52:41.686Z,1001.3
2023-06-10T04:53:42.668Z,1001.2
2023-06-10T04:54:43.707Z,1001
2023-06-10T04:55:44.661Z,1001.2
2023-06-10T04:56:45.711Z,1001.3
2023-06-10T04:57:46.668Z,1001.3
2023-06-10T04:58:47.703Z,1001.3
2023-06-10T04:59:48.691Z,1001.3
2023-06-10T05:00:49.661Z,1001.4
2023-06-10T05:01:50.693Z,1001.3
2023-06-10T05:02:51.697Z,1001.4
2023-06-10T05:03:52.705Z,1001.4
2023-06-10T05:04:53.656Z,1001.4
2023-06-10T05:05:54.655Z,1001.3
2023-06-10T05:06:55.669Z,1001.4
2023-06-10T05:07:56.651Z,1001.4
2023-06-10T05:08:57.669Z,1001.4
2023-06-10T05:09:58.661Z,1001.3
2023-06-10T05:10:59.647Z,1001.3
2023-06-10T05:12:00.664Z,1001.3
2023-06-10T05:13:01.726Z,1001.3
2023-06-10T05:14:02.652Z,1001.1
2023-06-10T05:15:03.748Z,1001.3
2023-06-10T05:16:04.688Z,1001.3
2023-06-10T05:17:05.680Z,1001.4
2023-06-10T05:18:06.709Z,1001.4
2023-06-10T05:19:08.653Z,1001.4
2023-06-10T05:20:08.699Z,1001.4
2023-06-10T05:21:09.716Z,1001.4
2023-06-10T05:22:10.699Z,1001.4
2023-06-10T05:23:11.662Z,1001.4
2023-06-10T05:24:12.728Z,1001.4
2023-06-10T05:25:13.700Z,1001.5
2023-06-10T05:26:14.660Z,1001.5
2023-06-10T05:27:15.671Z,1001.5
2023-06-10T05:28:16.670Z,1001.5
2023-06-10T05:29:17.719Z,1001.5
2023-06-10T05:30:18.708Z,1001.5
2023-06-10T05:31:19.686Z,1001.5
2023-06-10T05:32:20.696Z,1001.5
2023-06-10T05:33:21.735Z,1001.5
2023-06-10T05:34:22.677Z,1001.5
2023-06-10T05:35:23.708Z,1001.7
2023-06-10T05:36:24.679Z,1001.6
2023-06-10T05:37:25.695Z,1001.5
2023-06-10T05:38:26.677Z,1001.5
2023-06-10T05:39:27.687Z,1001.5
2023-06-10T05:40:28.832Z,1001.5
2023-06-10T05:41:29.680Z,1001.5
2023-06-10T05:42:30.693Z,1001.5
2023-06-10T05:43:31.679Z,1001.5
2023-06-10T05:44:32.682Z,1001.5
2023-06-10T05:45:33.687Z,1001.6
2023-06-10T05:46:34.739Z,1001.6
2023-06-10T05:47:35.760Z,1001.6
2023-06-10T05:48:36.703Z,1001.6
2023-06-10T05:49:37.689Z,1001.6
2023-06-10T05:50:38.743Z,1001.6
2023-06-10T05:51:39.731Z,1001.6
2023-06-10T05:52:40.711Z,1001.7
2023-06-10T05:53:41.673Z,1001.6
2023-06-10T05:54:42.693Z,1001.6
2023-06-10T05:55:43.789Z,1001.8
2023-06-10T05:56:44.687Z,1001.7
2023-06-10T05:57:45.755Z,1001.7
2023-06-10T05:58:46.738Z,1001.7
2023-06-10T05:59:47.699Z,1001.7
2023-06-10T06:00:48.710Z,1001.7
2023-06-10T06:01:49.696Z,1001.7
2023-06-10T06:02:50.828Z,1001.7
2023-06-10T06:03:51.761Z,1001.7
2023-06-10T06:04:52.732Z,1001.7
2023-06-10T06:05:53.700Z,1001.7
2023-06-10T06:06:54.698Z,1001.7
2023-06-10T06:07:55.719Z,1001.7
2023-06-10T06:08:56.683Z,1001.8
2023-06-10T06:09:57.686Z,1001.7
2023-06-10T06:10:58.719Z,1001.7
2023-06-10T06:11:59.694Z,1001.7
2023-06-10T06:13:00.693Z,1001.7
2023-06-10T06:14:01.759Z,1001.7
2023-06-10T06:15:02.724Z,1001.8
2023-06-10T06:16:03.859Z,1001.7
2023-06-10T06:17:04.699Z,1001.7
2023-06-10T06:18:05.741Z,1001.8
2023-06-10T06:19:06.709Z,1001.8
2023-06-10T06:20:07.864Z,1001.8
2023-06-10T06:21:08.717Z,1001.8
2023-06-10T06:22:09.705Z,1001.7
2023-06-10T06:23:10.739Z,1001.8
2023-06-10T06:24:11.735Z,1001.8
2023-06-10T06:25:13.039Z,1001.7
2023-06-10T06:26:13.712Z,1001.7
2023-06-10T06:27:14.698Z,1001.8
2023-06-10T06:28:15.713Z,1001.8
2023-06-10T06:29:16.696Z,1001.8
2023-06-10T06:30:17.704Z,1001
2023-06-10T06:31:18.727Z,1001.6
2023-06-10T06:32:19.709Z,1001.8
2023-06-10T06:33:20.748Z,1001.9
2023-06-10T06:34:21.731Z,1001.9
2023-06-10T06:35:22.708Z,1001.9
2023-06-10T06:36:23.750Z,1001.9
2023-06-10T06:37:24.730Z,1001.9
2023-06-10T06:38:25.891Z,1001.9
2023-06-10T06:39:26.740Z,1001.9
2023-06-10T06:40:27.740Z,1001.9
2023-06-10T06:41:28.705Z,1001.9
2023-06-10T06:42:29.728Z,1001.9
2023-06-10T06:43:30.749Z,1001.7
2023-06-10T06:44:31.720Z,1001.6
2023-06-10T06:45:32.733Z,1001.9
2023-06-10T06:46:33.715Z,1001.9
2023-06-10T06:47:34.779Z,1001.9
2023-06-10T06:48:35.772Z,1001.9
2023-06-10T06:49:36.732Z,1001.9
2023-06-10T06:50:37.742Z,1002
2023-06-10T06:51:38.712Z,1002
2023-06-10T06:52:39.717Z,1002
2023-06-10T06:53:40.850Z,1002.1
2023-06-10T06:54:41.745Z,1002
2023-06-10T06:55:42.732Z,1002.1
2023-06-10T06:56:43.874Z,1002.1
2023-06-10T06:57:44.721Z,1002
2023-06-10T06:58:45.852Z,1002.1
2023-06-10T06:59:46.735Z,1002
2023-06-10T07:00:47.818Z,1001.8
2023-06-10T07:01:48.732Z,1002
2023-06-10T07:02:49.759Z,1002.1
2023-06-10T07:03:50.744Z,1002.1
2023-06-10T07:04:51.813Z,1001.7
2023-06-10T07:05:52.726Z,1002
2023-06-10T07:06:53.756Z,1002.1
2023-06-10T07:07:54.742Z,1002.1
2023-06-10T07:08:55.858Z,1002.2
2023-06-10T07:09:56.772Z,1002.2
2023-06-10T07:10:57.732Z,1002.2
2023-06-10T07:11:58.729Z,1002.2
2023-06-10T07:12:59.760Z,1002.1
2023-06-10T07:14:00.746Z,1002.2
2023-06-10T07:15:01.805Z,1002.2
2023-06-10T07:16:02.770Z,1002.2
2023-06-10T07:17:04.059Z,1002.2
2023-06-10T07:18:05.788Z,1002.2
2023-06-10T07:19:06.786Z,1002.2
2023-06-10T07:20:07.756Z,1002.2
2023-06-10T07:21:08.859Z,1002.2
2023-06-10T07:22:09.765Z,1002.2
2023-06-10T07:23:10.741Z,1002.2
2023-06-10T07:24:11.796Z,1002.2
2023-06-10T07:25:12.847Z,1002.3
2023-06-10T07:26:13.750Z,1002.2
2023-06-10T07:27:14.762Z,1002.2
2023-06-10T07:28:15.753Z,1002.2
2023-06-10T07:29:16.734Z,1002.2
2023-06-10T07:30:17.760Z,1002.2
2023-06-10T07:31:18.833Z,1002.3
2023-06-10T07:32:19.745Z,1002.3
2023-06-10T07:33:20.805Z,1002.3
2023-06-10T07:34:21.742Z,1002.3
2023-06-10T07:35:22.743Z,1002.3
2023-06-10T07:36:23.807Z,1002.3
2023-06-10T07:37:24.763Z,1002.4
2023-06-10T07:38:25.750Z,1002.4
2023-06-10T07:39:26.802Z,1002.4
2023-06-10T07:40:27.846Z,1002.4
2023-06-10T07:41:28.836Z,1002.4
2023-06-10T07:42:29.757Z,1002.4
2023-06-10T07:43:30.757Z,1002.4
2023-06-10T07:44:31.787Z,1002.4
2023-06-10T07:45:32.762Z,1002.4
2023-06-10T07:46:33.836Z,1002.4
2023-06-10T07:47:34.778Z,1002.4
2023-06-10T07:48:35.776Z,1002.4
2023-06-10T07:49:36.845Z,1002.4
2023-06-10T07:50:37.764Z,1002.4
2023-06-10T07:51:38.752Z,1002.4
2023-06-10T07:52:39.773Z,1002.4
2023-06-10T07:53:40.766Z,1002.4
2023-06-10T07:54:41.886Z,1002.4
2023-06-10T07:55:42.772Z,1002.4
2023-06-10T07:56:43.819Z,1002.4
2023-06-10T07:57:44.801Z,1002.4
2023-06-10T07:58:45.896Z,1002.4
2023-06-10T07:59:46.779Z,1002.4
2023-06-10T08:00:47.762Z,1002.5
2023-06-10T08:01:48.760Z,1002.4
2023-06-10T08:02:49.948Z,1002.4
2023-06-10T08:03:50.974Z,1002.5
2023-06-10T08:04:51.886Z,1002.5
2023-06-10T08:05:52.759Z,1002.5
2023-06-10T08:06:53.758Z,1002.5
2023-06-10T08:07:54.769Z,1002.5
2023-06-10T08:08:55.813Z,1002.5
2023-06-10T08:09:56.811Z,1002.5
2023-06-10T08:10:57.780Z,1002.5
2023-06-10T08:11:58.913Z,1002.5
2023-06-10T08:12:59.765Z,1002.6
2023-06-10T08:14:00.782Z,1002.5
2023-06-10T08:15:01.865Z,1002.5
2023-06-10T08:16:02.853Z,1002.6
2023-06-10T08:17:03.917Z,1002.7
2023-06-10T08:18:04.831Z,1002.6
2023-06-10T08:19:05.801Z,1002.6
2023-06-10T08:20:06.833Z,1002.6
2023-06-10T08:21:07.812Z,1002.6
2023-06-10T08:22:08.792Z,1002.6
2023-06-10T08:23:09.777Z,1002.6
2023-06-10T08:24:10.849Z,1002.6
2023-06-10T08:25:12.007Z,1002.6
2023-06-10T08:26:12.790Z,1002.6
2023-06-10T08:27:13.783Z,1002.6
2023-06-10T08:28:14.775Z,1002.6
2023-06-10T08:29:15.791Z,1002.6
2023-06-10T08:30:16.790Z,1002.6
2023-06-10T08:31:17.808Z,1002.6
2023-06-10T08:32:18.849Z,1002.6
2023-06-10T08:33:19.784Z,1002.6
2023-06-10T08:34:20.794Z,1002.7
2023-06-10T08:35:21.832Z,1002.4
2023-06-10T08:36:22.856Z,1002.6
2023-06-10T08:37:23.893Z,1002.6
2023-06-10T08:38:24.782Z,1002.6
2023-06-10T08:39:25.788Z,1002.6
2023-06-10T08:40:26.860Z,1002.6
2023-06-10T08:41:27.797Z,1002.6
2023-06-10T08:42:28.815Z,1002.6
2023-06-10T08:43:29.788Z,1002.6
2023-06-10T08:44:30.824Z,1002.7
2023-06-10T08:45:31.795Z,1002.6
2023-06-10T08:46:32.802Z,1002.6
2023-06-10T08:47:33.832Z,1002.6
2023-06-10T08:48:34.809Z,1002.7
2023-06-10T08:49:35.863Z,1002.7
2023-06-10T08:50:36.797Z,1002.7
2023-06-10T08:51:37.870Z,1002.7
2023-06-10T08:52:38.801Z,1002.7
2023-06-10T08:53:39.798Z,1002.7
2023-06-10T08:54:40.822Z,1002.7
2023-06-10T08:55:41.827Z,1002.7
2023-06-10T08:56:42.805Z,1002.7
2023-06-10T08:57:43.856Z,1002.8
2023-06-10T08:58:44.820Z,1002.7
2023-06-10T08:59:45.966Z,1002.7
2023-06-10T09:00:46.826Z,1002.7
2023-06-10T09:01:47.848Z,1002.7
2023-06-10T09:02:48.945Z,1002.7
2023-06-10T09:03:49.830Z,1002.7
2023-06-10T09:04:50.821Z,1002.8
2023-06-10T09:05:51.835Z,1002.8
2023-06-10T09:06:52.813Z,1002.7
2023-06-10T09:07:53.818Z,1002.7
2023-06-10T09:08:54.890Z,1002.8
2023-06-10T09:09:55.831Z,1002.7
2023-06-10T09:10:56.834Z,1002.7
2023-06-10T09:11:57.823Z,1002.7
2023-06-10T09:12:58.815Z,1002.7
2023-06-10T09:13:59.830Z,1002.7
2023-06-10T09:15:03.259Z,1002.7
2023-06-10T09:16:01.910Z,1002.7
2023-06-10T09:17:02.823Z,1002.7
2023-06-10T09:18:03.932Z,1002.7
2023-06-10T09:19:04.845Z,1002.6
2023-06-10T09:20:07.496Z,1002.6
2023-06-10T09:21:06.805Z,1002.6
2023-06-10T09:22:07.855Z,1002.2
2023-06-10T09:23:08.848Z,1002.4
2023-06-10T09:24:09.856Z,1002.5
2023-06-10T09:25:10.825Z,1002.5
2023-06-10T09:26:11.921Z,1002.5
2023-06-10T09:27:12.854Z,1002.5
2023-06-10T09:28:13.818Z,1002.5
2023-06-10T09:29:14.811Z,1002.5
2023-06-10T09:30:15.860Z,1002.5
2023-06-10T09:31:16.843Z,1002.5
2023-06-10T09:32:17.882Z,1002.5
2023-06-10T09:33:18.833Z,1002.5
2023-06-10T09:34:19.839Z,1002.5
2023-06-10T09:35:20.875Z,1002.5
2023-06-10T09:36:21.980Z,1002.6
2023-06-10T09:37:22.878Z,1002.5
2023-06-10T09:38:23.887Z,1002.1
2023-06-10T09:39:24.828Z,1002.4
2023-06-10T09:40:25.856Z,1002.5
2023-06-10T09:41:26.894Z,1002.5
2023-06-10T09:42:27.957Z,1002.5
2023-06-10T09:43:28.844Z,1002.4
2023-06-10T09:44:29.842Z,1002.4
2023-06-10T09:45:30.908Z,1002.4
2023-06-10T09:46:31.948Z,1002.4
2023-06-10T09:47:32.939Z,1002.5
2023-06-10T09:48:33.841Z,1002.5
2023-06-10T09:49:34.836Z,1002.4
2023-06-10T09:50:36.059Z,1002.5
2023-06-10T09:51:36.891Z,1002.4
2023-06-10T09:52:37.866Z,1002.4
2023-06-10T09:53:38.827Z,1002.4
2023-06-10T09:54:39.839Z,1002.5
2023-06-10T09:55:40.827Z,1002.4
2023-06-10T09:56:41.906Z,1002.4
2023-06-10T09:57:42.871Z,1002.5
2023-06-10T09:58:43.889Z,1002.4
2023-06-10T09:59:44.847Z,1002.4
2023-06-10T10:00:46.110Z,1002
2023-06-10T10:01:46.933Z,1002.3
2023-06-10T10:02:48.044Z,1002.4
2023-06-10T10:03:48.845Z,1002.4
2023-06-10T10:04:49.938Z,1002.4
2023-06-10T10:05:51.081Z,1002.5
2023-06-10T10:06:51.897Z,1002.5
2023-06-10T10:07:52.870Z,1002.5
2023-06-10T10:08:53.878Z,1002.4
2023-06-10T10:09:54.860Z,1002.2
2023-06-10T10:10:55.857Z,1002.4
2023-06-10T10:11:57.023Z,1002.4
2023-06-10T10:12:57.924Z,1002.4
2023-06-10T10:13:58.848Z,1002.3
2023-06-10T10:14:59.872Z,1002.3
2023-06-10T10:16:00.854Z,1002.3
2023-06-10T10:17:01.928Z,1002.3
2023-06-10T10:18:02.995Z,1002.3
2023-06-10T10:19:03.910Z,1002.3
2023-06-10T10:20:04.905Z,1002.3
2023-06-10T10:21:05.878Z,1002.3
2023-06-10T10:22:06.923Z,1002.3
2023-06-10T10:23:07.872Z,1002.3
2023-06-10T10:24:08.937Z,1002.3
2023-06-10T10:25:10.148Z,1002.2
2023-06-10T10:26:11.041Z,1002.2
2023-06-10T10:27:11.946Z,1002.2
2023-06-10T10:28:12.871Z,1001.9
2023-06-10T10:29:13.898Z,1002.1
2023-06-10T10:30:14.918Z,1002.2
2023-06-10T10:31:15.908Z,1002.1
2023-06-10T10:32:17.003Z,1002.1
2023-06-10T10:33:17.963Z,1002.2
2023-06-10T10:34:18.894Z,1002.1
2023-06-10T10:35:19.879Z,1002.1
2023-06-10T10:36:20.898Z,1002.1
2023-06-10T10:37:21.961Z,1002.1
2023-06-10T10:38:22.867Z,1002.1
2023-06-10T10:39:23.854Z,1002.1
2023-06-10T10:40:24.854Z,1002.1
2023-06-10T10:41:25.877Z,1002.1
2023-06-10T10:42:26.974Z,1002.1
2023-06-10T10:43:27.889Z,1002
2023-06-10T10:44:28.929Z,1002
2023-06-10T10:45:29.921Z,1002
2023-06-10T10:46:30.913Z,1001.9
2023-06-10T10:47:32.071Z,1001.9
2023-06-10T10:48:32.869Z,1001.9
2023-06-10T10:49:33.933Z,1001.9
2023-06-10T10:50:34.880Z,1001.9
2023-06-10T10:51:35.899Z,1001.8
2023-06-10T10:52:36.878Z,1001.8
2023-06-10T10:53:37.940Z,1001.8
2023-06-10T10:54:38.860Z,1001.8
2023-06-10T10:55:39.885Z,1001.9
2023-06-10T10:56:40.899Z,1001.9
2023-06-10T10:57:41.970Z,1001.9
2023-06-10T10:58:42.927Z,1001.9
2023-06-10T10:59:43.898Z,1001.9
2023-06-10T11:00:44.945Z,1001.9
2023-06-10T11:01:46.145Z,1001.9
2023-06-10T11:02:47.675Z,1001.9
2023-06-10T11:03:48.019Z,1001.9
2023-06-10T11:04:49.001Z,1001.9
2023-06-10T11:05:50.144Z,1001.8
2023-06-10T11:06:50.909Z,1001.9
2023-06-10T11:07:51.947Z,1001.9
2023-06-10T11:08:52.929Z,1001.9
2023-06-10T11:09:53.914Z,1001.9
2023-06-10T11:10:54.910Z,1001.9
2023-06-10T11:11:55.903Z,1001.9
2023-06-10T11:12:56.928Z,1001.9
2023-06-10T11:13:57.912Z,1001.9
2023-06-10T11:14:58.917Z,1001.9
2023-06-10T11:16:00.013Z,1002
2023-06-10T11:17:00.991Z,1002
2023-06-10T11:18:02.045Z,1001.9
2023-06-10T11:19:02.903Z,1002
2023-06-10T11:20:03.954Z,1002
2023-06-10T11:21:05.149Z,1002
2023-06-10T11:22:05.905Z,1002
2023-06-10T11:23:06.960Z,1002
2023-06-10T11:24:07.948Z,1002
2023-06-10T11:25:09.170Z,1001.9
2023-06-10T11:26:10.032Z,1001.9
2023-06-10T11:27:10.915Z,1001.8
2023-06-10T11:28:11.979Z,1001.8
2023-06-10T11:29:12.952Z,1001.8
2023-06-10T11:30:14.030Z,1001.8
2023-06-10T11:31:14.932Z,1001.8
2023-06-10T11:32:16.033Z,1001.8
2023-06-10T11:33:17.053Z,1001.8
2023-06-10T11:34:17.978Z,1001.9
2023-06-10T11:35:18.994Z,1001.8
2023-06-10T11:36:19.911Z,1001.8
2023-06-10T11:37:20.929Z,1001.8
2023-06-10T11:38:21.923Z,1001.8
2023-06-10T11:39:22.905Z,1001.8
2023-06-10T11:40:23.902Z,1001.4
2023-06-10T11:41:24.896Z,1001.8
2023-06-10T11:42:25.914Z,1001.8
2023-06-10T11:43:26.990Z,1001.8
2023-06-10T11:44:27.913Z,1001.7
2023-06-10T11:45:28.932Z,1001.7
2023-06-10T11:46:29.950Z,1001.7
2023-06-10T11:47:30.952Z,1001.8
2023-06-10T11:48:31.931Z,1001.8
2023-06-10T11:49:32.916Z,1001.8
2023-06-10T11:50:33.916Z,1001.8
2023-06-10T11:51:34.978Z,1001.8
2023-06-10T11:52:35.928Z,1001.8
2023-06-10T11:53:36.943Z,1001.7
2023-06-10T11:54:37.941Z,1001.8
2023-06-10T11:55:38.910Z,1001.8
2023-06-10T11:56:40.035Z,1001.8
2023-06-10T11:57:40.916Z,1001.7
2023-06-10T11:58:41.959Z,1001.7
2023-06-10T11:59:42.936Z,1001.7
2023-06-10T12:00:43.959Z,1001.7
2023-06-10T12:01:45.033Z,1001.7
2023-06-10T12:02:46.357Z,1001.8
2023-06-10T12:03:46.962Z,1001.8
2023-06-10T12:04:47.933Z,1001.7
2023-06-10T12:05:49.007Z,1001.7
2023-06-10T12:06:50.005Z,1001.7
2023-06-10T12:07:50.928Z,1001.7
2023-06-10T12:08:51.954Z,1001.7
2023-06-10T12:09:52.945Z,1001.7
2023-06-10T12:10:53.947Z,1001.7
2023-06-10T12:11:54.986Z,1001.7
2023-06-10T12:12:55.920Z,1001.7
2023-06-10T12:13:56.981Z,1001.7
2023-06-10T12:14:58.159Z,1001.7
2023-06-10T12:15:58.977Z,1001.7
2023-06-10T12:16:59.963Z,1001.8
2023-06-10T12:18:01.036Z,1001.7
2023-06-10T12:19:01.953Z,1001.7
2023-06-10T12:20:03.039Z,1001.7
2023-06-10T12:21:03.947Z,1001.7
2023-06-10T12:22:04.969Z,1001.7
2023-06-10T12:23:05.918Z,1001.7
2023-06-10T12:24:07.079Z,1001.7
2023-06-10T12:25:08.481Z,1001.7
2023-06-10T12:26:09.014Z,1001.7
2023-06-10T12:27:09.952Z,1001.7
2023-06-10T12:28:10.952Z,1001.8
2023-06-10T12:29:11.973Z,1001.8
2023-06-10T12:30:12.946Z,1001.8
2023-06-10T12:31:13.956Z,1001.8
2023-06-10T12:32:15.015Z,1001.7
2023-06-10T12:33:15.941Z,1001.7
2023-06-10T12:34:16.938Z,1001.3
2023-06-10T12:35:18.022Z,1001.6
2023-06-10T12:36:19.065Z,1001.7
2023-06-10T12:37:19.938Z,1001.7
2023-06-10T12:38:20.976Z,1001.8
2023-06-10T12:39:21.954Z,1001.8
2023-06-10T12:40:22.964Z,1001.8
2023-06-10T12:41:24.024Z,1001.7
2023-06-10T12:42:24.943Z,1001.7
2023-06-10T12:43:25.945Z,1001.7